Time,TemperatureF,DewpointF,PressureIn,WindDirection,WindDirectionDegrees,WindSpeedMPH,WindSpeedGustMPH,Humidity,HourlyPrecipIn,Conditions,Clouds,dailyrainin,SoftwareType,DateUTC
2013-11-29 00:01:00,51.1,45.1,30.23,NE,37,0.0,0.0,80,0.00,,,0.00,Wunderground v.1.15,2013-11-29 05:01:00,
2013-11-29 00:02:00,51.1,45.1,30.23,NE,49,0.0,0.0,80,0.00,,,0.00,Wunderground v.1.15,2013-11-29 05:02:00,
2013-11-29 00:03:00,51.1,45.1,30.23,NE,41,0.0,0.0,80,0.00,,,0.00,Wunderground v.1.15,2013-11-29 05:03:00,
2013-11-29 00:04:00,51.1,45.1,30.23,NE,51,0.0,0.0,80,0.00,,,0.00,Wunderground v.1.15,2013-11-29 05:04:00,
2013-11-29 00:06:00,51.1,45.1,30.23,North,356,0.0,0.0,80,0.00,,,0.00,Wunderground v.1.15,2013-11-29 05:06:00,
2013-11-29 00:12:00,51.0,45.0,30.23,North,357,0.0,0.0,80,0.00,,,0.00,Wunderground v.1.15,2013-11-29 05:12:00,
2013-11-29 00:13:00,51.0,45.0,30.23,North,357,0.0,0.0,80,0.00,,,0.00,Wunderground v.1.15,2013-11-29 05:13:00,
2013-11-29 00:19:00,50.8,44.9,30.23,North,0,0.0,0.0,80,0.00,,,0.00,Wunderground v.1.15,2013-11-29 05:19:00,
2013-11-29 00:24:00,50.8,44.9,30.23,East,95,0.0,0.0,80,0.00,,,0.00,Wunderground v.1.15,2013-11-29 05:24:00,
2013-11-29 00:30:00,50.7,44.8,30.23,NNW,329,0.0,0.0,80,0.00,,,0.00,Wunderground v.1.15,2013-11-29 05:30:00,
2013-11-29 00:35:00,50.7,44.8,30.22,ENE,78,0.0,0.0,80,0.00,,,0.00,Wunderground v.1.15,2013-11-29 05:35:00,
2013-11-29 00:41:00,50.5,44.6,30.22,NNE,23,0.0,0.0,80,0.00,,,0.00,Wunderground v.1.15,2013-11-29 05:41:00,
2013-11-29 00:46:00,50.5,44.9,30.22,SSE,152,0.0,0.0,81,0.00,,,0.00,Wunderground v.1.15,2013-11-29 05:46:00,
2013-11-29 00:52:00,50.5,44.9,30.22,NNE,17,0.0,1.0,81,0.00,,,0.00,Wunderground v.1.15,2013-11-29 05:52:00,
2013-11-29 00:58:00,50.5,44.9,30.22,NNE,17,0.0,1.0,81,0.00,,,0.00,Wunderground v.1.15,2013-11-29 05:58:00,
2013-11-29 01:03:00,50.5,44.9,30.22,ESE,110,0.0,0.0,81,0.00,,,0.00,Wunderground v.1.15,2013-11-29 06:03:00,
2013-11-29 01:09:00,50.4,44.8,30.22,NNW,337,0.0,0.0,81,0.00,,,0.00,Wunderground v.1.15,2013-11-29 06:09:00,
2013-11-29 01:14:00,50.4,44.8,30.22,ESE,113,0.0,0.0,81,0.00,,,0.00,Wunderground v.1.15,2013-11-29 06:14:00,
2013-11-29 01:20:00,50.4,44.8,30.22,NE,48,2.0,2.0,81,0.00,,,0.00,Wunderground v.1.15,2013-11-29 06:20:00,
2013-11-29 01:26:00,50.4,44.8,30.22,North,4,0.0,2.0,81,0.00,,,0.00,Wunderground v.1.15,2013-11-29 06:26:00,
2013-11-29 01:31:00,50.2,44.6,30.22,ENE,72,0.0,0.0,81,0.00,,,0.00,Wunderground v.1.15,2013-11-29 06:31:00,
2013-11-29 01:37:00,50.2,44.6,30.22,North,1,0.0,1.0,81,0.00,,,0.00,Wunderground v.1.15,2013-11-29 06:37:00,
2013-11-29 01:42:00,50.2,44.6,30.22,NNE,13,0.0,0.0,81,0.00,,,0.00,Wunderground v.1.15,2013-11-29 06:42:00,
2013-11-29 01:48:00,50.1,44.8,30.21,North,354,0.0,0.0,82,0.00,,,0.00,Wunderground v.1.15,2013-11-29 06:48:00,
2013-11-29 01:54:00,50.1,44.8,30.21,SSE,157,0.0,0.0,82,0.00,,,0.00,Wunderground v.1.15,2013-11-29 06:54:00,
2013-11-29 01:59:00,50.1,44.8,30.21,North,6,0.0,0.0,82,0.00,,,0.00,Wunderground v.1.15,2013-11-29 06:59:00,
2013-11-29 02:04:00,50.1,44.8,30.21,North,353,0.0,0.0,82,0.00,,,0.00,Wunderground v.1.15,2013-11-29 07:04:00,
2013-11-29 02:09:00,49.9,44.6,30.21,NNE,18,0.0,0.0,82,0.00,,,0.00,Wunderground v.1.15,2013-11-29 07:09:00,
2013-11-29 02:14:00,49.9,44.6,30.21,East,89,0.0,0.0,82,0.00,,,0.00,Wunderground v.1.15,2013-11-29 07:14:00,
2013-11-29 02:20:00,49.9,44.6,30.21,North,353,0.0,1.0,82,0.00,,,0.00,Wunderground v.1.15,2013-11-29 07:20:00,
2013-11-29 02:25:00,49.9,44.6,30.21,ENE,72,0.0,6.0,82,0.00,,,0.00,Wunderground v.1.15,2013-11-29 07:25:00,
2013-11-29 02:30:00,49.9,44.6,30.21,ENE,69,0.0,6.0,82,0.00,,,0.00,Wunderground v.1.15,2013-11-29 07:30:00,
2013-11-29 02:35:00,50.1,45.1,30.20,NNW,333,0.0,3.0,83,0.00,,,0.00,Wunderground v.1.15,2013-11-29 07:35:00,
2013-11-29 02:40:00,50.1,45.1,30.20,East,92,0.0,5.0,83,0.00,,,0.00,Wunderground v.1.15,2013-11-29 07:40:00,
2013-11-29 02:45:00,50.1,45.1,30.20,North,4,0.0,8.0,83,0.00,,,0.00,Wunderground v.1.15,2013-11-29 07:45:00,
2013-11-29 02:50:00,50.1,45.1,30.21,East,89,0.0,8.0,83,0.00,,,0.00,Wunderground v.1.15,2013-11-29 07:50:00,
2013-11-29 02:55:00,50.1,45.1,30.21,North,359,0.0,3.0,83,0.00,,,0.00,Wunderground v.1.15,2013-11-29 07:55:00,
2013-11-29 03:00:00,50.2,45.2,30.21,North,0,0.0,0.0,83,0.00,,,0.00,Wunderground v.1.15,2013-11-29 08:00:00,
2013-11-29 03:05:00,50.2,45.2,30.21,NNE,21,0.0,3.0,83,0.00,,,0.00,Wunderground v.1.15,2013-11-29 08:05:00,
2013-11-29 03:10:00,50.2,45.2,30.21,North,0,0.0,0.0,83,0.00,,,0.00,Wunderground v.1.15,2013-11-29 08:10:00,
2013-11-29 03:15:00,50.2,45.2,30.21,NNW,329,3.0,3.0,83,0.00,,,0.00,Wunderground v.1.15,2013-11-29 08:15:00,
2013-11-29 03:20:00,50.2,45.2,30.20,NE,56,0.0,0.0,83,0.00,,,0.00,Wunderground v.1.15,2013-11-29 08:20:00,
2013-11-29 03:25:00,50.2,45.2,30.20,North,350,0.0,5.0,83,0.00,,,0.00,Wunderground v.1.15,2013-11-29 08:25:00,
2013-11-29 03:30:00,50.2,45.2,30.20,NNE,30,0.0,0.0,83,0.00,,,0.00,Wunderground v.1.15,2013-11-29 08:30:00,
2013-11-29 03:35:00,50.2,45.2,30.19,ENE,69,0.0,1.0,83,0.00,,,0.00,Wunderground v.1.15,2013-11-29 08:35:00,
2013-11-29 03:40:00,50.2,45.6,30.19,East,93,0.0,0.0,84,0.00,,,0.00,Wunderground v.1.15,2013-11-29 08:40:00,
2013-11-29 03:45:00,50.2,45.6,30.19,ESE,109,0.0,0.0,84,0.00,,,0.00,Wunderground v.1.15,2013-11-29 08:45:00,
2013-11-29 03:50:00,50.2,45.6,30.19,East,92,0.0,0.0,84,0.00,,,0.00,Wunderground v.1.15,2013-11-29 08:50:00,
2013-11-29 03:55:00,50.4,45.7,30.19,East,80,0.0,0.0,84,0.00,,,0.00,Wunderground v.1.15,2013-11-29 08:55:00,
2013-11-29 04:00:00,50.4,45.7,30.19,North,356,0.0,0.0,84,0.00,,,0.00,Wunderground v.1.15,2013-11-29 09:00:00,
2013-11-29 04:05:00,50.4,45.7,30.19,East,93,0.0,10.0,84,0.00,,,0.00,Wunderground v.1.15,2013-11-29 09:05:00,
2013-11-29 04:10:00,50.5,45.8,30.19,NNE,16,0.0,0.0,84,0.00,,,0.00,Wunderground v.1.15,2013-11-29 09:10:00,
2013-11-29 04:15:00,50.5,45.8,30.19,ENE,61,0.0,1.0,84,0.00,,,0.00,Wunderground v.1.15,2013-11-29 09:15:00,
2013-11-29 04:20:00,50.5,45.8,30.19,NE,38,0.0,0.0,84,0.00,,,0.00,Wunderground v.1.15,2013-11-29 09:20:00,
2013-11-29 04:25:00,50.5,45.8,30.19,East,86,0.0,1.0,84,0.00,,,0.00,Wunderground v.1.15,2013-11-29 09:25:00,
2013-11-29 04:30:00,50.5,45.8,30.19,East,97,0.0,0.0,84,0.00,,,0.00,Wunderground v.1.15,2013-11-29 09:30:00,
2013-11-29 04:35:00,50.5,45.8,30.19,ESE,107,0.0,0.0,84,0.00,,,0.00,Wunderground v.1.15,2013-11-29 09:35:00,
2013-11-29 04:40:00,50.7,46.0,30.19,ESE,102,0.0,0.0,84,0.00,,,0.00,Wunderground v.1.15,2013-11-29 09:40:00,
2013-11-29 04:46:00,50.7,46.0,30.19,NNE,23,0.0,8.0,84,0.00,,,0.00,Wunderground v.1.15,2013-11-29 09:46:00,
2013-11-29 04:51:00,50.7,46.0,30.19,East,85,0.0,0.0,84,0.00,,,0.00,Wunderground v.1.15,2013-11-29 09:51:00,
2013-11-29 04:56:00,50.8,46.1,30.19,East,88,0.0,7.0,84,0.00,,,0.00,Wunderground v.1.15,2013-11-29 09:56:00,
2013-11-29 05:01:00,50.8,46.5,30.19,ENE,72,0.0,0.0,85,0.00,,,0.00,Wunderground v.1.15,2013-11-29 10:01:00,
2013-11-29 05:06:00,50.8,46.5,30.19,NW,325,0.0,3.0,85,0.00,,,0.00,Wunderground v.1.15,2013-11-29 10:06:00,
2013-11-29 05:11:00,50.8,46.5,30.19,ESE,107,0.0,0.0,85,0.00,,,0.00,Wunderground v.1.15,2013-11-29 10:11:00,
2013-11-29 05:16:00,50.8,46.5,30.19,NNW,347,0.0,0.0,85,0.00,,,0.00,Wunderground v.1.15,2013-11-29 10:16:00,
2013-11-29 05:21:00,51.0,46.6,30.19,East,83,0.0,0.0,85,0.00,,,0.00,Wunderground v.1.15,2013-11-29 10:21:00,
2013-11-29 05:26:00,51.0,46.6,30.19,East,92,0.0,0.0,85,0.00,,,0.00,Wunderground v.1.15,2013-11-29 10:26:00,
2013-11-29 05:31:00,51.1,46.7,30.19,East,79,0.0,0.0,85,0.00,,,0.00,Wunderground v.1.15,2013-11-29 10:31:00,
2013-11-29 05:36:00,51.1,46.7,30.20,ENE,72,0.0,0.0,85,0.00,,,0.00,Wunderground v.1.15,2013-11-29 10:36:00,
2013-11-29 05:41:00,51.1,46.7,30.20,NNW,335,0.0,1.0,85,0.00,,,0.00,Wunderground v.1.15,2013-11-29 10:41:00,
2013-11-29 05:46:00,51.3,46.9,30.20,East,97,0.0,3.0,85,0.00,,,0.00,Wunderground v.1.15,2013-11-29 10:46:00,
2013-11-29 05:51:00,51.3,46.9,30.21,NE,54,0.0,0.0,85,0.00,,,0.00,Wunderground v.1.15,2013-11-29 10:51:00,
2013-11-29 05:56:00,51.4,47.0,30.21,NE,44,0.0,6.0,85,0.00,,,0.00,Wunderground v.1.15,2013-11-29 10:56:00,
2013-11-29 06:01:00,51.4,47.0,30.21,North,359,0.0,2.0,85,0.00,,,0.00,Wunderground v.1.15,2013-11-29 11:01:00,
2013-11-29 06:06:00,51.4,47.0,30.21,NE,40,0.0,2.0,85,0.00,,,0.00,Wunderground v.1.15,2013-11-29 11:06:00,
2013-11-29 06:11:00,51.4,47.0,30.21,North,4,0.0,0.0,85,0.00,,,0.00,Wunderground v.1.15,2013-11-29 11:11:00,
2013-11-29 06:16:00,51.6,47.2,30.21,North,0,0.0,1.0,85,0.00,,,0.00,Wunderground v.1.15,2013-11-29 11:16:00,
2013-11-29 06:21:00,51.6,47.2,30.21,East,89,0.0,0.0,85,0.00,,,0.00,Wunderground v.1.15,2013-11-29 11:21:00,
2013-11-29 06:26:00,51.6,47.5,30.21,ESE,120,0.0,1.0,86,0.00,,,0.00,Wunderground v.1.15,2013-11-29 11:26:00,
2013-11-29 06:31:00,51.7,47.6,30.21,ESE,116,0.0,0.0,86,0.00,,,0.00,Wunderground v.1.15,2013-11-29 11:31:00,
2013-11-29 06:36:00,51.7,47.6,30.22,ENE,69,0.0,2.0,86,0.00,,,0.00,Wunderground v.1.15,2013-11-29 11:36:00,
2013-11-29 06:41:00,51.7,47.6,30.22,NNE,27,0.0,1.0,86,0.00,,,0.00,Wunderground v.1.15,2013-11-29 11:41:00,
2013-11-29 06:46:00,51.9,47.8,30.22,NNE,30,0.0,1.0,86,0.00,,,0.00,Wunderground v.1.15,2013-11-29 11:46:00,
2013-11-29 06:51:00,51.9,47.8,30.22,ENE,71,0.0,0.0,86,0.00,,,0.00,Wunderground v.1.15,2013-11-29 11:51:00,
2013-11-29 06:56:00,52.0,47.9,30.22,ENE,64,0.0,0.0,86,0.00,,,0.00,Wunderground v.1.15,2013-11-29 11:56:00,
2013-11-29 07:01:00,52.0,47.9,30.22,East,99,0.0,0.0,86,0.00,,,0.00,Wunderground v.1.15,2013-11-29 12:01:00,
2013-11-29 07:06:00,52.0,47.9,30.22,NE,56,0.0,2.0,86,0.00,,,0.00,Wunderground v.1.15,2013-11-29 12:06:00,
2013-11-29 07:11:00,52.0,47.9,30.22,NW,323,0.0,0.0,86,0.00,,,0.00,Wunderground v.1.15,2013-11-29 12:11:00,
2013-11-29 07:16:00,52.2,48.1,30.22,NNW,330,0.0,0.0,86,0.00,,,0.00,Wunderground v.1.15,2013-11-29 12:16:00,
2013-11-29 07:21:00,52.2,48.1,30.23,ESE,102,0.0,1.0,86,0.00,,,0.00,Wunderground v.1.15,2013-11-29 12:21:00,
2013-11-29 07:26:00,52.3,48.2,30.23,ENE,65,0.0,1.0,86,0.00,,,0.00,Wunderground v.1.15,2013-11-29 12:26:00,
2013-11-29 07:31:00,52.5,48.4,30.23,ESE,114,0.0,1.0,86,0.00,,,0.00,Wunderground v.1.15,2013-11-29 12:31:00,
2013-11-29 07:36:00,52.6,48.5,30.23,East,82,0.0,3.0,86,0.00,,,0.00,Wunderground v.1.15,2013-11-29 12:36:00,
2013-11-29 07:41:00,52.8,48.7,30.23,East,96,0.0,0.0,86,0.00,,,0.00,Wunderground v.1.15,2013-11-29 12:41:00,
2013-11-29 07:46:00,52.9,48.8,30.23,ESE,110,0.0,3.0,86,0.00,,,0.00,Wunderground v.1.15,2013-11-29 12:46:00,
2013-11-29 07:51:00,53.2,49.1,30.24,NE,44,0.0,0.0,86,0.00,,,0.00,Wunderground v.1.15,2013-11-29 12:51:00,
2013-11-29 07:56:00,53.3,49.2,30.24,East,88,0.0,1.0,86,0.00,,,0.00,Wunderground v.1.15,2013-11-29 12:56:00,
2013-11-29 08:01:00,53.5,49.4,30.24,NE,49,0.0,0.0,86,0.00,,,0.00,Wunderground v.1.15,2013-11-29 13:01:00,
2013-11-29 08:06:00,53.8,49.7,30.24,NE,38,0.0,0.0,86,0.00,,,0.00,Wunderground v.1.15,2013-11-29 13:06:00,
2013-11-29 08:11:00,53.9,49.8,30.24,ESE,106,0.0,0.0,86,0.00,,,0.00,Wunderground v.1.15,2013-11-29 13:11:00,
2013-11-29 08:16:00,54.1,50.0,30.24,North,0,0.0,2.0,86,0.00,,,0.00,Wunderground v.1.15,2013-11-29 13:16:00,
2013-11-29 08:21:00,54.4,50.3,30.24,NE,37,0.0,0.0,86,0.00,,,0.00,Wunderground v.1.15,2013-11-29 13:21:00,
2013-11-29 08:26:00,54.5,50.4,30.24,NNE,27,0.0,3.0,86,0.00,,,0.00,Wunderground v.1.15,2013-11-29 13:26:00,
2013-11-29 08:31:00,54.7,50.6,30.24,NE,45,0.0,1.0,86,0.00,,,0.00,Wunderground v.1.15,2013-11-29 13:31:00,
2013-11-29 08:36:00,54.8,50.7,30.24,South,191,0.0,6.0,86,0.00,,,0.00,Wunderground v.1.15,2013-11-29 13:36:00,
2013-11-29 08:41:00,55.1,51.0,30.24,NNE,16,0.0,0.0,86,0.00,,,0.00,Wunderground v.1.15,2013-11-29 13:41:00,
2013-11-29 08:46:00,55.4,51.3,30.25,ESE,112,0.0,0.0,86,0.00,,,0.00,Wunderground v.1.15,2013-11-29 13:46:00,
2013-11-29 08:51:00,55.7,51.3,30.25,North,0,0.0,0.0,85,0.00,,,0.00,Wunderground v.1.15,2013-11-29 13:51:00,
2013-11-29 08:56:00,56.0,51.6,30.25,NNW,343,0.0,5.0,85,0.00,,,0.00,Wunderground v.1.15,2013-11-29 13:56:00,
2013-11-29 09:01:00,56.3,51.8,30.25,ENE,75,0.0,0.0,85,0.00,,,0.00,Wunderground v.1.15,2013-11-29 14:01:00,
2013-11-29 09:06:00,56.5,52.0,30.25,ESE,104,0.0,3.0,85,0.00,,,0.00,Wunderground v.1.15,2013-11-29 14:06:00,
2013-11-29 09:11:00,56.7,51.9,30.25,East,85,0.0,0.0,84,0.00,,,0.00,Wunderground v.1.15,2013-11-29 14:11:00,
2013-11-29 09:17:00,57.0,52.2,30.25,NW,315,0.0,1.0,84,0.00,,,0.00,Wunderground v.1.15,2013-11-29 14:17:00,
2013-11-29 09:22:00,57.3,52.5,30.25,East,86,0.0,0.0,84,0.00,,,0.00,Wunderground v.1.15,2013-11-29 14:22:00,
2013-11-29 09:27:00,57.6,52.8,30.25,North,4,0.0,7.0,84,0.00,,,0.00,Wunderground v.1.15,2013-11-29 14:27:00,
2013-11-29 09:32:00,58.0,53.2,30.25,NNE,14,0.0,1.0,84,0.00,,,0.00,Wunderground v.1.15,2013-11-29 14:32:00,
2013-11-29 09:37:00,58.1,53.0,30.25,ESE,107,0.0,3.0,83,0.00,,,0.00,Wunderground v.1.15,2013-11-29 14:37:00,
2013-11-29 09:42:00,58.4,53.3,30.25,SE,137,0.0,0.0,83,0.00,,,0.00,Wunderground v.1.15,2013-11-29 14:42:00,
2013-11-29 09:47:00,58.6,53.5,30.25,ENE,58,0.0,5.0,83,0.00,,,0.00,Wunderground v.1.15,2013-11-29 14:47:00,
2013-11-29 09:52:00,58.9,53.7,30.25,NNW,340,0.0,3.0,83,0.00,,,0.00,Wunderground v.1.15,2013-11-29 14:52:00,
2013-11-29 09:57:00,59.2,54.0,30.25,ESE,104,0.0,3.0,83,0.00,,,0.00,Wunderground v.1.15,2013-11-29 14:57:00,
2013-11-29 10:02:00,59.5,54.0,30.25,NE,37,0.0,1.0,82,0.00,,,0.00,Wunderground v.1.15,2013-11-29 15:02:00,
2013-11-29 10:07:00,59.8,54.3,30.25,East,86,0.0,4.0,82,0.00,,,0.00,Wunderground v.1.15,2013-11-29 15:07:00,
2013-11-29 10:12:00,59.9,54.1,30.25,East,82,2.0,3.0,81,0.00,,,0.00,Wunderground v.1.15,2013-11-29 15:12:00,
2013-11-29 10:17:00,60.1,54.2,30.25,ESE,106,0.0,4.0,81,0.00,,,0.00,Wunderground v.1.15,2013-11-29 15:17:00,
2013-11-29 10:22:00,60.2,54.3,30.25,ENE,72,0.0,0.0,81,0.00,,,0.00,Wunderground v.1.15,2013-11-29 15:22:00,
2013-11-29 10:27:00,60.5,54.3,30.25,ESE,107,0.0,6.0,80,0.00,,,0.00,Wunderground v.1.15,2013-11-29 15:27:00,
2013-11-29 10:32:00,60.9,54.7,30.25,ENE,76,6.0,6.0,80,0.00,,,0.00,Wunderground v.1.15,2013-11-29 15:32:00,
2013-11-29 10:37:00,61.2,55.0,30.25,NE,54,0.0,6.0,80,0.00,,,0.00,Wunderground v.1.15,2013-11-29 15:37:00,
2013-11-29 10:42:00,61.5,54.9,30.25,NNE,13,0.0,6.0,79,0.00,,,0.00,Wunderground v.1.15,2013-11-29 15:42:00,
2013-11-29 10:47:00,61.8,55.2,30.25,NE,44,0.0,6.0,79,0.00,,,0.00,Wunderground v.1.15,2013-11-29 15:47:00,
2013-11-29 10:52:00,62.3,55.7,30.25,North,1,0.0,6.0,79,0.00,,,0.00,Wunderground v.1.15,2013-11-29 15:52:00,
2013-11-29 10:57:00,62.9,56.3,30.25,North,0,0.0,6.0,79,0.00,,,0.00,Wunderground v.1.15,2013-11-29 15:57:00,
2013-11-29 11:02:00,63.7,56.7,30.25,East,79,5.0,6.0,78,0.00,,,0.00,Wunderground v.1.15,2013-11-29 16:02:00,
2013-11-29 11:07:00,64.2,56.8,30.25,NNW,335,0.0,7.0,77,0.00,,,0.00,Wunderground v.1.15,2013-11-29 16:07:00,
2013-11-29 11:12:00,64.3,56.2,30.25,NNW,343,0.0,8.0,75,0.00,,,0.00,Wunderground v.1.15,2013-11-29 16:12:00,
2013-11-29 11:17:00,64.7,56.6,30.24,SSE,150,0.0,10.0,75,0.00,,,0.00,Wunderground v.1.15,2013-11-29 16:17:00,
2013-11-29 11:22:00,65.0,56.5,30.24,ENE,66,0.0,6.0,74,0.00,,,0.00,Wunderground v.1.15,2013-11-29 16:22:00,
2013-11-29 11:27:00,65.3,56.8,30.24,ESE,103,0.0,6.0,74,0.00,,,0.00,Wunderground v.1.15,2013-11-29 16:27:00,
2013-11-29 11:32:00,66.0,57.1,30.24,ESE,120,0.0,6.0,73,0.00,,,0.00,Wunderground v.1.15,2013-11-29 16:32:00,
2013-11-29 11:37:00,66.4,57.1,30.24,ENE,71,0.0,6.0,72,0.00,,,0.00,Wunderground v.1.15,2013-11-29 16:37:00,
2013-11-29 11:42:00,66.9,57.6,30.24,NNE,24,0.0,1.0,72,0.00,,,0.00,Wunderground v.1.15,2013-11-29 16:42:00,
2013-11-29 11:47:00,67.3,57.6,30.23,North,350,0.0,3.0,71,0.00,,,0.00,Wunderground v.1.15,2013-11-29 16:47:00,
2013-11-29 11:52:00,67.8,58.1,30.23,North,0,0.0,0.0,71,0.00,,,0.00,Wunderground v.1.15,2013-11-29 16:52:00,
2013-11-29 11:57:00,68.3,57.7,30.23,North,352,1.0,7.0,69,0.00,,,0.00,Wunderground v.1.15,2013-11-29 16:57:00,
2013-11-29 12:02:00,68.8,58.2,30.22,North,8,0.0,0.0,69,0.00,,,0.00,Wunderground v.1.15,2013-11-29 17:02:00,
2013-11-29 12:07:00,69.1,58.1,30.22,North,11,3.0,6.0,68,0.00,,,0.00,Wunderground v.1.15,2013-11-29 17:07:00,
2013-11-29 12:12:00,69.3,57.9,30.22,NNW,337,2.0,8.0,67,0.00,,,0.00,Wunderground v.1.15,2013-11-29 17:12:00,
2013-11-29 12:17:00,69.3,57.9,30.22,ESE,114,0.0,8.0,67,0.00,,,0.00,Wunderground v.1.15,2013-11-29 17:17:00,
2013-11-29 12:22:00,69.4,57.5,30.22,East,88,0.0,1.0,66,0.00,,,0.00,Wunderground v.1.15,2013-11-29 17:22:00,
2013-11-29 12:27:00,69.6,57.3,30.22,NNE,18,0.0,6.0,65,0.00,,,0.00,Wunderground v.1.15,2013-11-29 17:27:00,
2013-11-29 12:32:00,69.8,57.5,30.21,East,86,0.0,0.0,65,0.00,,,0.00,Wunderground v.1.15,2013-11-29 17:32:00,
2013-11-29 12:37:00,70.1,57.4,30.21,ENE,75,0.0,5.0,64,0.00,,,0.00,Wunderground v.1.15,2013-11-29 17:37:00,
2013-11-29 12:42:00,70.4,57.6,30.21,NNE,24,2.0,7.0,64,0.00,,,0.00,Wunderground v.1.15,2013-11-29 17:42:00,
2013-11-29 12:47:00,70.6,57.4,30.20,North,0,5.0,7.0,63,0.00,,,0.00,Wunderground v.1.15,2013-11-29 17:47:00,
2013-11-29 12:52:00,70.4,56.8,30.20,North,0,0.0,1.0,62,0.00,,,0.00,Wunderground v.1.15,2013-11-29 17:52:00,
2013-11-29 12:57:00,70.4,56.3,30.20,NNE,31,0.0,1.0,61,0.00,,,0.00,Wunderground v.1.15,2013-11-29 17:57:00,
2013-11-29 13:03:00,70.6,56.5,30.19,East,85,3.0,3.0,61,0.00,,,0.00,Wunderground v.1.15,2013-11-29 18:03:00,
2013-11-29 13:08:00,70.6,56.0,30.19,North,0,1.0,6.0,60,0.00,,,0.00,Wunderground v.1.15,2013-11-29 18:08:00,
2013-11-29 13:13:00,70.8,56.2,30.19,North,4,0.0,1.0,60,0.00,,,0.00,Wunderground v.1.15,2013-11-29 18:13:00,
2013-11-29 13:18:00,70.6,55.6,30.19,East,82,0.0,5.0,59,0.00,,,0.00,Wunderground v.1.15,2013-11-29 18:18:00,
2013-11-29 13:23:00,70.6,56.0,30.19,NNE,18,0.0,1.0,60,0.00,,,0.00,Wunderground v.1.15,2013-11-29 18:23:00,
2013-11-29 13:28:00,70.8,56.2,30.19,NNE,25,0.0,2.0,60,0.00,,,0.00,Wunderground v.1.15,2013-11-29 18:28:00,
2013-11-29 13:33:00,71.1,56.0,30.18,NE,41,0.0,5.0,59,0.00,,,0.00,Wunderground v.1.15,2013-11-29 18:33:00,
2013-11-29 13:38:00,71.1,56.0,30.18,East,86,3.0,5.0,59,0.00,,,0.00,Wunderground v.1.15,2013-11-29 18:38:00,
2013-11-29 13:43:00,71.1,55.6,30.18,North,0,0.0,11.0,58,0.00,,,0.00,Wunderground v.1.15,2013-11-29 18:43:00,
2013-11-29 13:48:00,71.1,55.6,30.18,ESE,112,0.0,11.0,58,0.00,,,0.00,Wunderground v.1.15,2013-11-29 18:48:00,
2013-11-29 13:53:00,70.9,55.4,30.18,NNE,24,0.0,4.0,58,0.00,,,0.00,Wunderground v.1.15,2013-11-29 18:53:00,
2013-11-29 13:58:00,70.8,55.3,30.18,ENE,76,0.0,6.0,58,0.00,,,0.00,Wunderground v.1.15,2013-11-29 18:58:00,
2013-11-29 14:03:00,70.8,55.3,30.18,North,0,2.0,8.0,58,0.00,,,0.00,Wunderground v.1.15,2013-11-29 19:03:00,
2013-11-29 14:08:00,70.8,54.8,30.18,West,275,0.0,8.0,57,0.00,,,0.00,Wunderground v.1.15,2013-11-29 19:08:00,
2013-11-29 14:13:00,71.1,55.1,30.18,North,4,0.0,6.0,57,0.00,,,0.00,Wunderground v.1.15,2013-11-29 19:13:00,
2013-11-29 14:18:00,71.3,55.3,30.17,East,88,0.0,6.0,57,0.00,,,0.00,Wunderground v.1.15,2013-11-29 19:18:00,
2013-11-29 14:21:00,71.5,55.5,30.17,North,0,0.0,-999.0,57,0.00,,,0.00,Wunderground v.1.15,2013-11-29 19:21:00,
2013-11-29 14:23:00,71.5,55.5,30.17,North,0,0.0,4.0,57,0.00,,,0.00,Wunderground v.1.15,2013-11-29 19:23:00,
2013-11-29 14:26:00,71.5,55.0,30.17,North,0,0.0,-999.0,56,0.00,,,0.00,Wunderground v.1.15,2013-11-29 19:26:00,
2013-11-29 14:28:00,71.6,55.1,30.17,North,354,0.0,7.0,56,0.00,,,0.00,Wunderground v.1.15,2013-11-29 19:28:00,
2013-11-29 14:31:00,71.6,55.1,30.16,North,0,0.0,-999.0,56,0.00,,,0.00,Wunderground v.1.15,2013-11-29 19:31:00,
2013-11-29 14:33:00,71.6,55.1,30.16,North,349,0.0,1.0,56,0.00,,,0.00,Wunderground v.1.15,2013-11-29 19:33:00,
2013-11-29 14:36:00,71.6,55.1,30.16,North,0,1.0,-999.0,56,0.00,,,0.00,Wunderground v.1.15,2013-11-29 19:36:00,
2013-11-29 14:38:00,71.6,55.1,30.16,North,10,2.0,8.0,56,0.00,,,0.00,Wunderground v.1.15,2013-11-29 19:38:00,
2013-11-29 14:41:00,71.5,54.5,30.16,North,0,1.0,-999.0,55,0.00,,,0.00,Wunderground v.1.15,2013-11-29 19:41:00,
2013-11-29 14:43:00,71.5,54.5,30.16,East,92,0.0,2.0,55,0.00,,,0.00,Wunderground v.1.15,2013-11-29 19:43:00,
2013-11-29 14:46:00,71.5,54.5,30.16,North,0,0.0,-999.0,55,0.00,,,0.00,Wunderground v.1.15,2013-11-29 19:46:00,
2013-11-29 14:48:00,71.5,54.5,30.16,North,10,8.0,12.0,55,0.00,,,0.00,Wunderground v.1.15,2013-11-29 19:48:00,
2013-11-29 14:51:00,71.5,54.5,30.16,East,90,2.0,-999.0,55,0.00,,,0.00,Wunderground v.1.15,2013-11-29 19:51:00,
2013-11-29 14:53:00,71.5,54.0,30.16,ENE,65,2.0,6.0,54,0.00,,,0.00,Wunderground v.1.15,2013-11-29 19:53:00,
2013-11-29 14:56:00,71.3,53.8,30.16,ESE,113,1.0,-999.0,54,0.00,,,0.00,Wunderground v.1.15,2013-11-29 19:56:00,
2013-11-29 14:58:00,71.3,53.8,30.16,NNW,336,0.0,7.0,54,0.00,,,0.00,Wunderground v.1.15,2013-11-29 19:58:00,
2013-11-29 15:01:00,71.3,53.8,30.16,North,0,0.0,-999.0,54,0.00,,,0.00,Wunderground v.1.15,2013-11-29 20:01:00,
2013-11-29 15:03:00,71.3,53.8,30.16,NNW,342,0.0,1.0,54,0.00,,,0.00,Wunderground v.1.15,2013-11-29 20:03:00,
2013-11-29 15:06:00,71.3,53.8,30.16,East,90,0.0,-999.0,54,0.00,,,0.00,Wunderground v.1.15,2013-11-29 20:06:00,
2013-11-29 15:08:00,71.3,53.8,30.16,NE,47,0.0,4.0,54,0.00,,,0.00,Wunderground v.1.15,2013-11-29 20:08:00,
2013-11-29 15:11:00,71.3,53.8,30.16,North,0,1.0,-999.0,54,0.00,,,0.00,Wunderground v.1.15,2013-11-29 20:11:00,
2013-11-29 15:13:00,71.3,53.8,30.16,North,353,0.0,5.0,54,0.00,,,0.00,Wunderground v.1.15,2013-11-29 20:13:00,
2013-11-29 15:16:00,71.1,53.6,30.16,NNW,338,0.0,-999.0,54,0.00,,,0.00,Wunderground v.1.15,2013-11-29 20:16:00,
2013-11-29 15:18:00,71.3,53.8,30.16,ENE,73,0.0,8.0,54,0.00,,,0.00,Wunderground v.1.15,2013-11-29 20:18:00,
2013-11-29 15:21:00,71.3,53.8,30.16,North,0,1.0,-999.0,54,0.00,,,0.00,Wunderground v.1.15,2013-11-29 20:21:00,
2013-11-29 15:23:00,71.3,53.8,30.16,North,353,0.0,8.0,54,0.00,,,0.00,Wunderground v.1.15,2013-11-29 20:23:00,
2013-11-29 15:26:00,71.3,53.8,30.16,North,0,1.0,-999.0,54,0.00,,,0.00,Wunderground v.1.15,2013-11-29 20:26:00,
2013-11-29 15:28:00,71.3,53.8,30.16,ESE,104,0.0,8.0,54,0.00,,,0.00,Wunderground v.1.15,2013-11-29 20:28:00,
2013-11-29 15:31:00,71.1,53.1,30.16,ESE,113,1.0,-999.0,53,0.00,,,0.00,Wunderground v.1.15,2013-11-29 20:31:00,
2013-11-29 15:33:00,71.1,53.1,30.16,North,0,0.0,6.0,53,0.00,,,0.00,Wunderground v.1.15,2013-11-29 20:33:00,
2013-11-29 15:36:00,71.1,53.1,30.16,North,0,1.0,-999.0,53,0.00,,,0.00,Wunderground v.1.15,2013-11-29 20:36:00,
2013-11-29 15:38:00,71.1,53.1,30.16,East,83,0.0,10.0,53,0.00,,,0.00,Wunderground v.1.15,2013-11-29 20:38:00,
2013-11-29 15:41:00,71.1,53.1,30.16,East,90,0.0,-999.0,53,0.00,,,0.00,Wunderground v.1.15,2013-11-29 20:41:00,
2013-11-29 15:43:00,71.1,53.1,30.16,NE,56,2.0,8.0,53,0.00,,,0.00,Wunderground v.1.15,2013-11-29 20:43:00,
2013-11-29 15:46:00,71.1,52.6,30.16,North,0,1.0,-999.0,52,0.00,,,0.00,Wunderground v.1.15,2013-11-29 20:46:00,
2013-11-29 15:48:00,70.9,52.4,30.16,North,357,0.0,10.0,52,0.00,,,0.00,Wunderground v.1.15,2013-11-29 20:48:00,
2013-11-29 15:51:00,70.9,52.4,30.16,North,0,0.0,-999.0,52,0.00,,,0.00,Wunderground v.1.15,2013-11-29 20:51:00,
2013-11-29 15:53:00,70.9,52.4,30.16,ENE,72,0.0,5.0,52,0.00,,,0.00,Wunderground v.1.15,2013-11-29 20:53:00,
2013-11-29 15:56:00,70.9,52.4,30.16,East,90,0.0,-999.0,52,0.00,,,0.00,Wunderground v.1.15,2013-11-29 20:56:00,
2013-11-29 15:58:00,70.8,52.3,30.16,NW,326,0.0,5.0,52,0.00,,,0.00,Wunderground v.1.15,2013-11-29 20:58:00,
2013-11-29 16:01:00,70.8,52.3,30.16,North,0,0.0,-999.0,52,0.00,,,0.00,Wunderground v.1.15,2013-11-29 21:01:00,
2013-11-29 16:03:00,70.8,52.8,30.16,NNE,32,0.0,3.0,53,0.00,,,0.00,Wunderground v.1.15,2013-11-29 21:03:00,
2013-11-29 16:06:00,70.6,52.6,30.16,North,0,0.0,-999.0,53,0.00,,,0.00,Wunderground v.1.15,2013-11-29 21:06:00,
2013-11-29 16:08:00,70.6,52.6,30.16,North,1,0.0,5.0,53,0.00,,,0.00,Wunderground v.1.15,2013-11-29 21:08:00,
2013-11-29 16:11:00,70.6,52.6,30.16,East,90,0.0,-999.0,53,0.00,,,0.00,Wunderground v.1.15,2013-11-29 21:11:00,
2013-11-29 16:13:00,70.6,52.6,30.16,North,359,0.0,6.0,53,0.00,,,0.00,Wunderground v.1.15,2013-11-29 21:13:00,
2013-11-29 16:16:00,70.4,52.4,30.16,East,90,0.0,-999.0,53,0.00,,,0.00,Wunderground v.1.15,2013-11-29 21:16:00,
2013-11-29 16:18:00,70.4,52.4,30.16,NE,37,0.0,6.0,53,0.00,,,0.00,Wunderground v.1.15,2013-11-29 21:18:00,
2013-11-29 16:21:00,70.3,52.4,30.16,North,0,0.0,-999.0,53,0.00,,,0.00,Wunderground v.1.15,2013-11-29 21:21:00,
2013-11-29 16:26:00,70.3,52.9,30.16,ENE,68,0.0,-999.0,54,0.00,,,0.00,Wunderground v.1.15,2013-11-29 21:26:00,
2013-11-29 16:31:00,70.1,52.2,30.16,East,90,0.0,-999.0,53,0.00,,,0.00,Wunderground v.1.15,2013-11-29 21:31:00,
2013-11-29 16:36:00,69.9,52.5,30.16,N/A,-737280,0.0,-999.0,54,0.00,,,0.00,Wunderground v.1.15,2013-11-29 21:36:00,
2013-11-29 16:41:00,69.8,52.4,30.16,ESE,113,1.0,-999.0,54,0.00,,,0.00,Wunderground v.1.15,2013-11-29 21:41:00,
2013-11-29 16:46:00,69.8,52.4,30.17,N/A,-737280,0.0,-999.0,54,0.00,,,0.00,Wunderground v.1.15,2013-11-29 21:46:00,
2013-11-29 16:51:00,69.4,52.5,30.17,North,0,0.0,-999.0,55,0.00,,,0.00,Wunderground v.1.15,2013-11-29 21:51:00,
2013-11-29 16:56:00,69.3,52.4,30.17,N/A,-737280,0.0,-999.0,55,0.00,,,0.00,Wunderground v.1.15,2013-11-29 21:56:00,
2013-11-29 17:01:00,69.1,52.7,30.16,ESE,113,0.0,-999.0,56,0.00,,,0.00,Wunderground v.1.15,2013-11-29 22:01:00,
2013-11-29 17:06:00,68.9,52.6,30.16,East,90,1.0,-999.0,56,0.00,,,0.00,Wunderground v.1.15,2013-11-29 22:06:00,
2013-11-29 17:11:00,68.6,52.8,30.16,N/A,-737280,0.0,-999.0,57,0.00,,,0.00,Wunderground v.1.15,2013-11-29 22:11:00,
2013-11-29 17:16:00,68.4,52.6,30.17,N/A,-737280,0.0,-999.0,57,0.00,,,0.00,Wunderground v.1.15,2013-11-29 22:16:00,
2013-11-29 17:21:00,68.3,52.9,30.17,N/A,-737280,0.0,-999.0,58,0.00,,,0.00,Wunderground v.1.15,2013-11-29 22:21:00,
2013-11-29 17:26:00,67.9,52.6,30.17,East,90,0.0,-999.0,58,0.00,,,0.00,Wunderground v.1.15,2013-11-29 22:26:00,
2013-11-29 17:31:00,67.8,52.9,30.16,N/A,-737280,0.0,-999.0,59,0.00,,,0.00,Wunderground v.1.15,2013-11-29 22:31:00,
2013-11-29 17:36:00,67.6,52.8,30.16,ENE,68,0.0,-999.0,59,0.00,,,0.00,Wunderground v.1.15,2013-11-29 22:36:00,
2013-11-29 17:41:00,67.3,52.9,30.16,East,90,0.0,-999.0,60,0.00,,,0.00,Wunderground v.1.15,2013-11-29 22:41:00,
2013-11-29 17:46:00,67.1,52.7,30.17,NE,45,0.0,-999.0,60,0.00,,,0.00,Wunderground v.1.15,2013-11-29 22:46:00,
2013-11-29 17:51:00,66.8,52.9,30.17,N/A,-737280,0.0,-999.0,61,0.00,,,0.00,Wunderground v.1.15,2013-11-29 22:51:00,
2013-11-29 17:56:00,66.6,52.7,30.17,N/A,-737280,0.0,-999.0,61,0.00,,,0.00,Wunderground v.1.15,2013-11-29 22:56:00,
2013-11-29 18:01:00,66.4,53.0,30.18,NE,45,0.0,-999.0,62,0.00,,,0.00,Wunderground v.1.15,2013-11-29 23:01:00,
2013-11-29 18:06:00,66.1,52.7,30.18,N/A,-737280,0.0,-999.0,62,0.00,,,0.00,Wunderground v.1.15,2013-11-29 23:06:00,
2013-11-29 18:11:00,66.0,53.0,30.18,N/A,-737280,0.0,-999.0,63,0.00,,,0.00,Wunderground v.1.15,2013-11-29 23:11:00,
2013-11-29 18:16:00,65.8,52.9,30.18,N/A,-737280,0.0,-999.0,63,0.00,,,0.00,Wunderground v.1.15,2013-11-29 23:16:00,
2013-11-29 18:21:00,65.5,53.0,30.18,N/A,-737280,0.0,-999.0,64,0.00,,,0.00,Wunderground v.1.15,2013-11-29 23:21:00,
2013-11-29 18:26:00,65.3,52.8,30.18,N/A,-737280,0.0,-999.0,64,0.00,,,0.00,Wunderground v.1.15,2013-11-29 23:26:00,
2013-11-29 18:31:00,65.2,52.7,30.18,N/A,-737280,0.0,-999.0,64,0.00,,,0.00,Wunderground v.1.15,2013-11-29 23:31:00,
2013-11-29 18:36:00,65.0,52.9,30.18,North,0,0.0,-999.0,65,0.00,,,0.00,Wunderground v.1.15,2013-11-29 23:36:00,
2013-11-29 18:41:00,64.8,53.2,30.18,North,0,0.0,-999.0,66,0.00,,,0.00,Wunderground v.1.15,2013-11-29 23:41:00,
2013-11-29 18:46:00,64.7,53.1,30.19,N/A,-737280,0.0,-999.0,66,0.00,,,0.00,Wunderground v.1.15,2013-11-29 23:46:00,
2013-11-29 18:51:00,64.5,52.9,30.19,East,90,0.0,-999.0,66,0.00,,,0.00,Wunderground v.1.15,2013-11-29 23:51:00,
2013-11-29 18:56:00,64.3,53.1,30.19,N/A,-737280,0.0,-999.0,67,0.00,,,0.00,Wunderground v.1.15,2013-11-29 23:56:00,
2013-11-29 19:01:00,64.3,53.1,30.19,N/A,-737280,0.0,-999.0,67,0.00,,,0.00,Wunderground v.1.15,2013-11-30 00:01:00,
2013-11-29 19:06:00,64.2,53.0,30.19,East,90,0.0,-999.0,67,0.00,,,0.00,Wunderground v.1.15,2013-11-30 00:06:00,
2013-11-29 19:11:00,64.0,53.2,30.19,NNW,338,0.0,-999.0,68,0.00,,,0.00,Wunderground v.1.15,2013-11-30 00:11:00,
2013-11-29 19:16:00,63.9,53.1,30.19,North,0,0.0,-999.0,68,0.00,,,0.00,Wunderground v.1.15,2013-11-30 00:16:00,
2013-11-29 19:21:00,63.9,53.1,30.19,ENE,68,0.0,-999.0,68,0.00,,,0.00,Wunderground v.1.15,2013-11-30 00:21:00,
2013-11-29 19:26:00,63.7,52.9,30.19,NE,45,0.0,-999.0,68,0.00,,,0.00,Wunderground v.1.15,2013-11-30 00:26:00,
2013-11-29 19:31:00,63.5,52.7,30.20,ENE,68,1.0,-999.0,68,0.00,,,0.00,Wunderground v.1.15,2013-11-30 00:31:00,
2013-11-29 19:36:00,63.4,53.0,30.20,North,0,0.0,-999.0,69,0.00,,,0.00,Wunderground v.1.15,2013-11-30 00:36:00,
2013-11-29 19:41:00,63.4,53.0,30.20,North,0,0.0,-999.0,69,0.00,,,0.00,Wunderground v.1.15,2013-11-30 00:41:00,
2013-11-29 19:46:00,63.2,52.9,30.20,North,0,1.0,-999.0,69,0.00,,,0.00,Wunderground v.1.15,2013-11-30 00:46:00,
2013-11-29 19:51:00,62.9,52.2,30.20,WNW,293,0.0,-999.0,68,0.00,,,0.00,Wunderground v.1.15,2013-11-30 00:51:00,
2013-11-29 19:56:00,62.7,52.4,30.20,North,0,1.0,-999.0,69,0.00,,,0.00,Wunderground v.1.15,2013-11-30 00:56:00,
2013-11-29 20:01:00,62.6,51.9,30.21,North,0,0.0,-999.0,68,0.00,,,0.00,Wunderground v.1.15,2013-11-30 01:01:00,
2013-11-29 20:06:00,62.4,52.1,30.21,N/A,-737280,0.0,-999.0,69,0.00,,,0.00,Wunderground v.1.15,2013-11-30 01:06:00,
2013-11-29 20:11:00,62.3,51.6,30.21,North,0,0.0,-999.0,68,0.00,,,0.00,Wunderground v.1.15,2013-11-30 01:11:00,
2013-11-29 20:16:00,62.1,51.8,30.22,NNW,338,0.0,-999.0,69,0.00,,,0.00,Wunderground v.1.15,2013-11-30 01:16:00,
2013-11-29 20:21:00,62.0,51.3,30.22,North,0,0.0,-999.0,68,0.00,,,0.00,Wunderground v.1.15,2013-11-30 01:21:00,
2013-11-29 20:26:00,61.8,51.5,30.22,North,0,0.0,-999.0,69,0.00,,,0.00,Wunderground v.1.15,2013-11-30 01:26:00,
2013-11-29 20:31:00,61.6,51.3,30.22,North,0,1.0,-999.0,69,0.00,,,0.00,Wunderground v.1.15,2013-11-30 01:31:00,
2013-11-29 20:36:00,61.5,51.2,30.22,North,0,0.0,-999.0,69,0.00,,,0.00,Wunderground v.1.15,2013-11-30 01:36:00,
2013-11-29 20:41:00,61.5,51.2,30.22,North,0,0.0,-999.0,69,0.00,,,0.00,Wunderground v.1.15,2013-11-30 01:41:00,
2013-11-29 20:46:00,61.3,51.0,30.22,North,0,0.0,-999.0,69,0.00,,,0.00,Wunderground v.1.15,2013-11-30 01:46:00,
2013-11-29 20:51:00,61.0,50.4,30.22,ESE,113,0.0,-999.0,68,0.00,,,0.00,Wunderground v.1.15,2013-11-30 01:51:00,
2013-11-29 20:56:00,60.7,50.1,30.22,North,0,1.0,-999.0,68,0.00,,,0.00,Wunderground v.1.15,2013-11-30 01:56:00,
2013-11-29 21:01:00,60.5,49.5,30.23,North,0,0.0,-999.0,67,0.00,,,0.00,Wunderground v.1.15,2013-11-30 02:01:00,
2013-11-29 21:06:00,60.2,49.2,30.23,North,0,0.0,-999.0,67,0.00,,,0.00,Wunderground v.1.15,2013-11-30 02:06:00,
2013-11-29 21:11:00,60.1,48.7,30.23,North,0,1.0,-999.0,66,0.00,,,0.00,Wunderground v.1.15,2013-11-30 02:11:00,
2013-11-29 21:16:00,60.1,48.7,30.23,North,0,0.0,-999.0,66,0.00,,,0.00,Wunderground v.1.15,2013-11-30 02:16:00,
2013-11-29 21:21:00,59.9,48.5,30.23,North,0,1.0,-999.0,66,0.00,,,0.00,Wunderground v.1.15,2013-11-30 02:21:00,
2013-11-29 21:26:00,59.8,48.4,30.23,North,0,0.0,-999.0,66,0.00,,,0.00,Wunderground v.1.15,2013-11-30 02:26:00,
2013-11-29 21:31:00,59.6,48.2,30.23,North,0,1.0,-999.0,66,0.00,,,0.00,Wunderground v.1.15,2013-11-30 02:31:00,
2013-11-29 21:36:00,59.5,48.1,30.23,North,0,1.0,-999.0,66,0.00,,,0.00,Wunderground v.1.15,2013-11-30 02:36:00,
2013-11-29 21:41:00,59.5,48.1,30.23,North,0,1.0,-999.0,66,0.00,,,0.00,Wunderground v.1.15,2013-11-30 02:41:00,
2013-11-29 21:46:00,59.3,47.9,30.24,North,0,1.0,-999.0,66,0.00,,,0.00,Wunderground v.1.15,2013-11-30 02:46:00,
2013-11-29 21:51:00,59.3,48.3,30.24,North,0,0.0,-999.0,67,0.00,,,0.00,Wunderground v.1.15,2013-11-30 02:51:00,
2013-11-29 21:56:00,59.0,48.1,30.24,North,0,0.0,-999.0,67,0.00,,,0.00,Wunderground v.1.15,2013-11-30 02:56:00,
2013-11-29 22:01:00,58.9,48.0,30.24,N/A,-737280,0.0,-999.0,67,0.00,,,0.00,Wunderground v.1.15,2013-11-30 03:01:00,
2013-11-29 22:06:00,58.9,48.4,30.24,North,0,1.0,-999.0,68,0.00,,,0.00,Wunderground v.1.15,2013-11-30 03:06:00,
2013-11-29 22:11:00,58.6,48.1,30.24,North,0,0.0,-999.0,68,0.00,,,0.00,Wunderground v.1.15,2013-11-30 03:11:00,
2013-11-29 22:16:00,58.4,47.9,30.23,North,0,0.0,-999.0,68,0.00,,,0.00,Wunderground v.1.15,2013-11-30 03:16:00,
2013-11-29 22:21:00,58.3,47.8,30.23,North,0,0.0,-999.0,68,0.00,,,0.00,Wunderground v.1.15,2013-11-30 03:21:00,
2013-11-29 22:26:00,58.3,48.2,30.23,N/A,-737280,0.0,-999.0,69,0.00,,,0.00,Wunderground v.1.15,2013-11-30 03:26:00,
2013-11-29 22:31:00,58.1,48.0,30.23,North,0,1.0,-999.0,69,0.00,,,0.00,Wunderground v.1.15,2013-11-30 03:31:00,
2013-11-29 22:36:00,58.0,47.9,30.23,N/A,-737280,0.0,-999.0,69,0.00,,,0.00,Wunderground v.1.15,2013-11-30 03:36:00,
2013-11-29 22:41:00,57.8,47.7,30.23,North,0,0.0,-999.0,69,0.00,,,0.00,Wunderground v.1.15,2013-11-30 03:41:00,
2013-11-29 22:46:00,57.6,47.5,30.23,North,0,0.0,-999.0,69,0.00,,,0.00,Wunderground v.1.15,2013-11-30 03:46:00,
2013-11-29 22:51:00,57.5,47.8,30.23,North,0,0.0,-999.0,70,0.00,,,0.00,Wunderground v.1.15,2013-11-30 03:51:00,
2013-11-29 22:56:00,57.3,47.6,30.23,N/A,-737280,0.0,-999.0,70,0.00,,,0.00,Wunderground v.1.15,2013-11-30 03:56:00,
2013-11-29 23:01:00,57.2,47.5,30.22,ESE,113,0.0,-999.0,70,0.00,,,0.00,Wunderground v.1.15,2013-11-30 04:01:00,
2013-11-29 23:06:00,57.0,47.3,30.22,ESE,113,0.0,-999.0,70,0.00,,,0.00,Wunderground v.1.15,2013-11-30 04:06:00,
2013-11-29 23:11:00,57.0,47.3,30.22,ENE,68,0.0,-999.0,70,0.00,,,0.00,Wunderground v.1.15,2013-11-30 04:11:00,
2013-11-29 23:16:00,56.9,47.2,30.22,North,0,0.0,-999.0,70,0.00,,,0.00,Wunderground v.1.15,2013-11-30 04:16:00,
2013-11-29 23:21:00,56.9,47.2,30.22,NNE,23,0.0,-999.0,70,0.00,,,0.00,Wunderground v.1.15,2013-11-30 04:21:00,
2013-11-29 23:26:00,56.7,47.4,30.22,North,0,0.0,-999.0,71,0.00,,,0.00,Wunderground v.1.15,2013-11-30 04:26:00,
2013-11-29 23:31:00,56.7,47.4,30.22,North,0,0.0,-999.0,71,0.00,,,0.00,Wunderground v.1.15,2013-11-30 04:31:00,
2013-11-29 23:36:00,56.6,47.3,30.22,North,0,1.0,-999.0,71,0.00,,,0.00,Wunderground v.1.15,2013-11-30 04:36:00,
2013-11-29 23:41:00,56.6,47.7,30.22,NE,45,0.0,-999.0,72,0.00,,,0.00,Wunderground v.1.15,2013-11-30 04:41:00,
2013-11-29 23:46:00,56.5,47.6,30.22,N/A,-737280,0.0,-999.0,72,0.00,,,0.00,Wunderground v.1.15,2013-11-30 04:46:00,
2013-11-29 23:51:00,56.3,47.4,30.22,North,0,0.0,-999.0,72,0.00,,,0.00,Wunderground v.1.15,2013-11-30 04:51:00,
2013-11-29 23:56:00,56.2,47.3,30.22,North,0,0.0,-999.0,72,0.00,,,0.00,Wunderground v.1.15,2013-11-30 04:56:00,